Time;durP1;ratioP1;P1;durP2;ratioP2;P2;SDS_P1;SDS_P2;PMS_P1;PMS_P2;Temp;Humidity;BMP_temperature;BMP_pressure;BME280_temperature;BME280_humidity;BME280_pressure;Samples;Min_cycle;Max_cycle;Signal;HPM_P1;HPM_P2
2022/05/23 00:02:19;;;;;;;27.63;7.33;;;17.70;27.10;;;;;;5021938;28;20907;-61
2022/05/23 00:04:46;;;;;;;28.73;7.03;;;17.70;27.00;;;;;;5023711;28;20490;-61
2022/05/23 00:07:15;;;;;;;26.00;6.73;;;17.70;27.30;;;;;;5024563;28;20463;-61
2022/05/23 00:09:42;;;;;;;26.17;5.97;;;17.60;27.50;;;;;;5026027;28;20490;-61
2022/05/23 00:12:10;;;;;;;24.83;6.57;;;17.60;27.60;;;;;;5025194;28;20471;-61
2022/05/23 00:14:37;;;;;;;26.53;6.77;;;17.50;27.50;;;;;;5024812;28;20466;-61
2022/05/23 00:17:04;;;;;;;26.00;5.90;;;17.50;27.90;;;;;;5022205;28;20825;-61
2022/05/23 00:19:32;;;;;;;24.90;6.40;;;17.50;27.70;;;;;;5026654;28;21189;-61
2022/05/23 00:21:59;;;;;;;24.77;5.97;;;17.50;28.10;;;;;;5025149;28;20455;-61
2022/05/23 00:24:26;;;;;;;25.87;6.80;;;17.50;27.90;;;;;;5025600;28;20483;-60
2022/05/23 00:26:52;;;;;;;26.87;6.47;;;17.50;28.00;;;;;;5026599;28;20466;-60
2022/05/23 00:29:20;;;;;;;26.43;6.53;;;17.40;28.30;;;;;;5026422;28;20471;-61
2022/05/23 00:37:18;;;;;;;28.50;6.33;;;17.30;28.80;;;;;;5023823;28;20524;-61
2022/05/23 00:39:45;;;;;;;32.00;7.03;;;17.30;29.20;;;;;;5024979;28;20481;-60
2022/05/23 00:44:58;;;;;;;26.97;7.23;;;17.20;28.70;;;;;;5025366;28;20477;-60
2022/05/23 00:47:26;;;;;;;25.00;6.80;;;17.20;28.80;;;;;;5025044;28;20467;-61
2022/05/23 00:49:55;;;;;;;25.80;6.00;;;17.20;28.80;;;;;;5020356;28;20455;-61
2022/05/23 00:52:26;;;;;;;25.37;6.57;;;17.20;28.90;;;;;;5029193;28;20474;-61
2022/05/23 00:54:57;;;;;;;25.03;6.27;;;17.20;29.10;;;;;;5022712;28;20478;-61
2022/05/23 00:57:30;;;;;;;26.40;6.10;;;17.20;28.90;;;;;;5029489;28;20467;-61
2022/05/23 00:59:56;;;;;;;26.73;5.83;;;17.20;28.80;;;;;;5026289;28;20466;-60
2022/05/23 01:02:24;;;;;;;26.77;6.03;;;17.10;28.80;;;;;;5026515;28;20476;-61
2022/05/23 01:04:52;;;;;;;28.30;6.50;;;17.10;28.90;;;;;;5026200;28;20482;-61
2022/05/23 01:07:21;;;;;;;25.57;6.20;;;17.10;28.80;;;;;;5028725;28;20459;-61
2022/05/23 01:09:49;;;;;;;25.23;6.17;;;17.10;29.00;;;;;;5029936;28;21345;-61
2022/05/23 01:12:16;;;;;;;26.03;6.43;;;17.00;29.40;;;;;;5028697;28;20490;-60
2022/05/23 01:14:48;;;;;;;26.13;6.80;;;16.90;29.40;;;;;;5030719;28;20562;-61
2022/05/23 01:17:15;;;;;;;29.30;6.17;;;16.80;29.50;;;;;;5029116;28;20682;-61
2022/05/23 01:19:42;;;;;;;26.00;6.80;;;16.80;29.60;;;;;;5027609;28;20474;-61
2022/05/23 01:22:18;;;;;;;27.13;7.00;;;16.80;29.80;;;;;;5024946;28;20467;-61
2022/05/23 01:24:53;;;;;;;26.20;7.30;;;16.80;29.70;;;;;;5027717;28;20482;-61
2022/05/23 01:27:22;;;;;;;26.07;6.70;;;16.70;30.60;;;;;;5027806;28;20458;-61
2022/05/23 01:29:49;;;;;;;24.73;6.47;;;16.70;30.20;;;;;;5028042;28;21036;-61
2022/05/23 01:32:15;;;;;;;26.70;6.30;;;16.70;30.30;;;;;;5028382;28;20510;-61
2022/05/23 01:34:44;;;;;;;28.63;7.03;;;16.70;30.20;;;;;;5025876;28;20460;-61
2022/05/23 01:37:11;;;;;;;25.70;6.70;;;16.70;30.50;;;;;;5028333;28;20465;-61
2022/05/23 01:39:38;;;;;;;25.90;6.90;;;16.70;30.40;;;;;;5027777;28;20985;-61
2022/05/23 01:42:06;;;;;;;24.00;6.23;;;16.70;30.30;;;;;;5026746;28;20466;-60
2022/05/23 01:44:34;;;;;;;26.53;7.93;;;16.70;30.70;;;;;;5029889;28;21129;-61
2022/05/23 01:47:08;;;;;;;25.40;6.00;;;16.70;30.50;;;;;;5028848;28;20459;-61
2022/05/23 01:49:34;;;;;;;26.53;6.30;;;16.70;30.50;;;;;;5026886;28;20463;-60
2022/05/23 01:52:01;;;;;;;26.20;6.57;;;16.70;31.10;;;;;;5024908;28;20459;-61
2022/05/23 01:54:28;;;;;;;26.27;6.73;;;16.70;31.40;;;;;;5026613;28;20464;-60
2022/05/23 01:56:55;;;;;;;30.80;7.10;;;16.70;31.30;;;;;;5028076;28;20467;-61
2022/05/23 02:02:07;;;;;;;25.90;5.83;;;16.60;31.90;;;;;;5021816;28;20474;-61
2022/05/23 02:04:34;;;;;;;29.50;7.33;;;16.60;31.50;;;;;;5023515;28;20511;-61
2022/05/23 02:07:01;;;;;;;27.40;6.37;;;16.60;31.20;;;;;;5029279;28;20838;-61
2022/05/23 02:09:28;;;;;;;26.13;6.40;;;16.50;31.10;;;;;;5022174;28;20466;-61
2022/05/23 02:11:56;;;;;;;28.17;6.40;;;16.50;31.50;;;;;;5028435;28;20463;-61
2022/05/23 02:14:23;;;;;;;29.87;7.77;;;16.50;30.90;;;;;;5027820;28;21083;-61
2022/05/23 02:16:49;;;;;;;28.63;7.17;;;16.50;30.80;;;;;;5025864;28;20490;-60
2022/05/23 02:19:18;;;;;;;27.50;6.57;;;16.50;32.00;;;;;;5024538;28;20459;-61
2022/05/23 02:21:45;;;;;;;28.60;7.40;;;16.40;31.30;;;;;;5027241;28;20455;-61
2022/05/23 02:24:12;;;;;;;26.80;7.13;;;16.40;31.00;;;;;;5028893;28;20482;-61
2022/05/23 02:26:38;;;;;;;27.33;6.93;;;16.40;30.80;;;;;;5022854;28;20515;-60
2022/05/23 02:29:07;;;;;;;31.23;7.20;;;16.30;30.90;;;;;;5026775;28;21018;-61
2022/05/23 02:31:33;;;;;;;28.40;7.13;;;16.40;30.60;;;;;;5023426;28;20493;-61
2022/05/23 02:34:00;;;;;;;28.10;6.93;;;16.40;30.40;;;;;;5027538;28;20969;-61
2022/05/23 02:36:28;;;;;;;28.60;6.70;;;16.30;30.00;;;;;;5024708;28;20466;-61
2022/05/23 02:38:56;;;;;;;28.80;7.43;;;16.40;29.70;;;;;;5027277;28;21012;-61
2022/05/23 02:41:23;;;;;;;30.43;7.27;;;16.40;29.80;;;;;;5025880;28;20818;-61
2022/05/23 02:43:50;;;;;;;27.57;6.90;;;16.40;29.80;;;;;;5026478;28;20455;-60
2022/05/23 02:46:17;;;;;;;27.73;6.80;;;16.40;30.40;;;;;;5027544;28;20498;-60
2022/05/23 02:48:43;;;;;;;26.97;6.50;;;16.40;30.00;;;;;;5022428;28;20467;-60
2022/05/23 02:51:10;;;;;;;27.73;6.10;;;16.40;30.50;;;;;;5024172;28;20467;-61
2022/05/23 02:53:38;;;;;;;26.67;7.60;;;16.30;30.60;;;;;;5026769;28;21008;-61
2022/05/23 02:56:05;;;;;;;31.70;6.57;;;16.30;30.60;;;;;;5022458;28;20482;-60
2022/05/23 02:58:32;;;;;;;28.17;7.60;;;16.30;30.70;;;;;;5025040;28;21027;-61
2022/05/23 03:00:59;;;;;;;29.30;6.57;;;16.40;30.60;;;;;;5026435;28;20474;-61
2022/05/23 03:03:24;;;;;;;26.03;7.00;;;16.30;30.70;;;;;;5027534;28;20999;-61
2022/05/23 03:05:52;;;;;;;26.00;5.97;;;16.30;30.90;;;;;;5018467;28;20487;-62
2022/05/23 03:08:21;;;;;;;25.43;6.20;;;16.30;31.00;;;;;;5027513;28;20772;-62
2022/05/23 03:10:52;;;;;;;28.90;7.23;;;16.20;31.90;;;;;;5023860;28;21181;-62
2022/05/23 03:13:18;;;;;;;26.27;6.50;;;16.20;31.10;;;;;;5025200;28;20470;-61
2022/05/23 03:15:45;;;;;;;27.17;6.40;;;16.30;30.90;;;;;;5025786;28;20483;-61
2022/05/23 03:18:12;;;;;;;27.27;6.70;;;16.20;30.90;;;;;;5026458;28;20477;-61
2022/05/23 03:20:39;;;;;;;29.40;7.23;;;16.30;31.00;;;;;;5026470;28;20458;-61
2022/05/23 03:28:37;;;;;;;27.27;6.77;;;16.10;31.40;;;;;;5025425;28;21098;-61
2022/05/23 03:31:05;;;;;;;26.63;6.93;;;16.10;31.50;;;;;;5022081;28;20554;-61
2022/05/23 03:33:32;;;;;;;26.40;6.40;;;16.00;31.50;;;;;;5027729;28;20554;-60
2022/05/23 03:35:58;;;;;;;30.27;7.03;;;16.00;31.60;;;;;;5026703;28;20475;-60
2022/05/23 03:38:25;;;;;;;26.70;6.50;;;16.00;31.70;;;;;;5027764;28;20459;-61
2022/05/23 03:40:53;;;;;;;26.50;6.93;;;16.00;31.50;;;;;;5024639;28;20494;-61
2022/05/23 03:43:20;;;;;;;28.40;6.53;;;16.00;32.00;;;;;;5025752;28;20533;-62
2022/05/23 03:45:47;;;;;;;26.70;7.00;;;15.90;32.20;;;;;;5025047;28;20490;-64
2022/05/23 03:48:14;;;;;;;29.63;6.37;;;16.00;32.40;;;;;;5024085;28;20542;-62
2022/05/23 03:50:42;;;;;;;27.10;6.97;;;16.00;32.30;;;;;;5026058;28;20470;-63
2022/05/23 03:53:09;;;;;;;27.63;6.90;;;16.00;32.10;;;;;;5026544;28;20463;-63
2022/05/23 03:55:36;;;;;;;27.00;6.87;;;16.00;32.20;;;;;;5027810;28;20486;-65
2022/05/23 03:58:04;;;;;;;28.70;7.17;;;16.00;32.10;;;;;;5026926;28;20462;-63
2022/05/23 04:00:31;;;;;;;26.50;6.53;;;16.00;32.20;;;;;;5032275;28;20561;-65
2022/05/23 04:02:57;;;;;;;27.13;7.53;;;16.00;32.50;;;;;;5024905;28;20466;-64
2022/05/23 04:05:25;;;;;;;27.03;7.37;;;16.00;32.80;;;;;;5026565;28;20509;-64
2022/05/23 04:07:52;;;;;;;29.80;6.90;;;16.00;32.50;;;;;;5022445;28;20474;-63
2022/05/23 04:10:19;;;;;;;27.77;7.13;;;16.10;32.50;;;;;;5022458;28;20458;-63
2022/05/23 04:12:47;;;;;;;27.27;6.73;;;16.10;32.10;;;;;;5025150;28;20529;-62
2022/05/23 04:15:15;;;;;;;27.27;6.97;;;16.10;31.80;;;;;;5024229;28;20478;-63
2022/05/23 04:17:42;;;;;;;27.67;8.10;;;16.10;32.50;;;;;;5022303;28;20463;-63
2022/05/23 04:20:10;;;;;;;27.73;7.33;;;16.10;32.60;;;;;;5025682;28;20956;-62
2022/05/23 04:22:37;;;;;;;29.30;6.80;;;16.20;32.40;;;;;;5026385;28;20463;-64
2022/05/23 04:25:05;;;;;;;27.10;6.77;;;16.20;32.20;;;;;;5029649;28;20532;-62
2022/05/23 04:27:32;;;;;;;28.03;7.40;;;16.20;32.10;;;;;;5029202;28;20500;-64
2022/05/23 04:29:59;;;;;;;28.40;6.70;;;16.30;32.20;;;;;;5029987;28;20471;-62
2022/05/23 04:35:14;;;;;;;27.37;6.53;;;16.30;32.00;;;;;;5025906;28;21086;-62
2022/05/23 04:37:41;;;;;;;26.97;7.10;;;16.40;32.00;;;;;;5030063;28;21209;-65
2022/05/23 04:40:09;;;;;;;28.80;6.00;;;16.40;31.90;;;;;;5023138;28;20459;-64
2022/05/23 04:42:36;;;;;;;27.80;7.40;;;16.50;32.00;;;;;;5031123;28;20467;-63
2022/05/23 04:45:03;;;;;;;27.20;6.77;;;16.50;32.00;;;;;;5023561;28;21206;-62
2022/05/23 04:50:15;;;;;;;27.50;7.47;;;16.60;32.20;;;;;;5026218;28;20828;-64
2022/05/23 04:52:42;;;;;;;28.40;7.27;;;16.70;32.50;;;;;;5031275;28;20968;-62
2022/05/23 04:55:10;;;;;;;27.00;6.83;;;16.70;32.70;;;;;;5029901;28;20486;-64
2022/05/23 04:57:36;;;;;;;28.33;7.23;;;16.70;32.90;;;;;;5029629;28;20463;-63
2022/05/23 05:00:08;;;;;;;27.43;7.10;;;16.80;33.10;;;;;;5029024;28;20466;-63
2022/05/23 05:02:37;;;;;;;29.13;6.80;;;16.90;33.50;;;;;;5024457;28;20478;-63
2022/05/23 05:05:04;;;;;;;28.80;6.57;;;17.10;33.20;;;;;;5028918;28;20497;-63
2022/05/23 05:07:31;;;;;;;28.63;6.93;;;17.10;32.70;;;;;;5034906;28;20498;-66
2022/05/23 05:09:58;;;;;;;28.13;6.83;;;17.10;32.30;;;;;;5037969;28;20467;-65
2022/05/23 05:12:25;;;;;;;26.97;7.10;;;17.20;32.80;;;;;;5040790;28;20455;-65
2022/05/23 05:14:52;;;;;;;26.67;6.13;;;17.20;32.50;;;;;;5041496;28;20489;-63
2022/05/23 05:17:18;;;;;;;27.93;7.37;;;17.20;32.20;;;;;;5033194;28;20470;-65
2022/05/23 05:19:47;;;;;;;29.27;6.33;;;17.10;32.10;;;;;;5026559;28;20547;-62
2022/05/23 05:22:14;;;;;;;28.10;7.57;;;17.10;31.90;;;;;;5026014;28;20863;-62
2022/05/23 05:24:40;;;;;;;26.80;6.80;;;17.10;31.90;;;;;;5030078;28;21006;-63
2022/05/23 05:27:08;;;;;;;29.93;7.00;;;17.00;32.30;;;;;;5024621;28;20493;-61
2022/05/23 05:29:34;;;;;;;28.57;7.30;;;17.00;32.20;;;;;;5025981;28;21229;-64
2022/05/23 05:32:06;;;;;;;27.80;8.00;;;17.00;32.10;;;;;;5025723;28;20568;-62
2022/05/23 05:34:36;;;;;;;27.33;7.17;;;17.00;32.30;;;;;;5029253;28;20458;-63
2022/05/23 05:37:09;;;;;;;29.37;6.90;;;17.00;32.40;;;;;;5026808;28;20455;-64
2022/05/23 05:39:37;;;;;;;28.07;7.07;;;17.20;33.50;;;;;;5028948;28;20987;-62
2022/05/23 05:42:09;;;;;;;29.20;9.30;;;17.30;33.00;;;;;;5029606;28;20494;-64
2022/05/23 05:44:39;;;;;;;28.80;8.87;;;17.20;32.90;;;;;;5026057;28;20470;-63
2022/05/23 05:47:09;;;;;;;29.53;8.33;;;17.30;32.80;;;;;;5025780;28;20483;-63
2022/05/23 05:49:38;;;;;;;30.23;9.83;;;17.40;32.30;;;;;;5024358;28;21031;-64
2022/05/23 05:52:10;;;;;;;34.20;14.13;;;17.40;32.00;;;;;;5026091;28;20475;-63
2022/05/23 05:54:39;;;;;;;34.50;14.30;;;17.50;32.10;;;;;;5026117;28;20465;-64
2022/05/23 05:57:06;;;;;;;32.47;10.40;;;17.60;31.90;;;;;;5018500;28;20467;-61
2022/05/23 05:59:33;;;;;;;31.30;8.00;;;17.70;31.50;;;;;;5022504;28;20463;-63
2022/05/23 06:02:00;;;;;;;29.30;6.07;;;17.80;31.10;;;;;;5028103;28;20485;-64
2022/05/23 06:04:27;;;;;;;27.77;5.27;;;17.80;30.60;;;;;;5029965;28;20463;-63
2022/05/23 06:12:23;;;;;;;28.57;5.07;;;18.10;29.00;;;;;;5028357;28;20578;-63
2022/05/23 06:14:50;;;;;;;27.90;4.83;;;18.20;28.50;;;;;;5022874;28;20475;-62
2022/05/23 06:17:17;;;;;;;29.90;5.10;;;18.40;28.30;;;;;;5031388;28;20485;-66
2022/05/23 06:19:46;;;;;;;30.73;5.87;;;18.50;28.00;;;;;;5030548;28;20451;-62
2022/05/23 06:22:14;;;;;;;28.73;4.57;;;18.70;27.80;;;;;;5023799;28;20974;-65
2022/05/23 06:24:44;;;;;;;30.50;5.60;;;18.90;27.20;;;;;;5026222;28;21013;-65
2022/05/23 06:27:12;;;;;;;27.83;5.40;;;19.10;27.00;;;;;;5031227;28;20490;-63
2022/05/23 06:29:39;;;;;;;28.00;4.93;;;19.20;26.30;;;;;;5029892;28;20965;-64
2022/05/23 06:32:07;;;;;;;28.70;4.87;;;19.20;25.20;;;;;;5029146;28;20471;-64
2022/05/23 06:34:34;;;;;;;30.10;5.00;;;19.30;25.40;;;;;;5026876;28;20474;-62
2022/05/23 06:37:01;;;;;;;27.87;4.60;;;19.50;25.50;;;;;;5029921;28;20455;-64
2022/05/23 06:39:28;;;;;;;31.57;5.33;;;20.60;24.10;;;;;;5029682;28;20455;-64
2022/05/23 06:41:56;;;;;;;29.53;5.10;;;21.80;20.80;;;;;;5025093;28;20469;-64
2022/05/23 06:44:23;;;;;;;30.47;4.67;;;23.00;17.70;;;;;;5024588;28;20988;-62
2022/05/23 06:46:50;;;;;;;29.17;5.60;;;23.30;16.60;;;;;;5025868;28;20540;-64
2022/05/23 06:49:16;;;;;;;30.73;4.47;;;23.10;16.60;;;;;;5025720;28;20454;-65
2022/05/23 06:51:49;;;;;;;27.90;4.80;;;22.60;16.70;;;;;;5030355;28;20827;-62
2022/05/23 06:54:16;;;;;;;28.27;5.40;;;22.10;17.30;;;;;;5026387;28;20467;-65
2022/05/23 06:56:43;;;;;;;28.40;5.37;;;21.80;18.00;;;;;;5028674;28;20851;-62
2022/05/23 06:59:13;;;;;;;27.27;4.43;;;21.60;18.10;;;;;;5029285;28;20467;-66
2022/05/23 07:01:41;;;;;;;28.13;4.63;;;21.90;19.20;;;;;;5028202;28;20475;-62
2022/05/23 07:04:07;;;;;;;29.53;5.47;;;23.00;18.00;;;;;;5026569;28;20455;-63
2022/05/23 07:12:28;;;;;;;29.83;5.03;;;23.70;15.70;;;;;;5021975;28;20458;-63
2022/05/23 07:14:57;;;;;;;28.23;5.03;;;23.70;15.40;;;;;;5027862;28;20601;-64
2022/05/23 07:17:24;;;;;;;28.20;5.00;;;23.30;15.70;;;;;;5028517;28;20687;-64
2022/05/23 07:19:51;;;;;;;27.40;5.00;;;22.80;15.90;;;;;;5028890;28;20561;-65
2022/05/23 07:22:17;;;;;;;28.10;5.33;;;22.40;17.10;;;;;;5023552;28;20459;-62
2022/05/23 07:24:45;;;;;;;29.70;7.23;;;21.90;18.60;;;;;;5019760;28;20953;-62
2022/05/23 07:27:13;;;;;;;30.50;5.73;;;21.40;19.70;;;;;;5028315;28;20486;-65
2022/05/23 07:29:40;;;;;;;27.80;5.43;;;21.40;20.70;;;;;;5028936;28;20869;-61
2022/05/23 07:32:13;;;;;;;28.63;5.00;;;24.40;17.80;;;;;;5027635;28;20467;-64
2022/05/23 07:34:41;;;;;;;27.00;4.93;;;28.00;12.40;;;;;;5025280;28;20497;-62
2022/05/23 07:37:08;;;;;;;26.53;4.50;;;31.30;6.80;;;;;;5025782;28;20459;-63
2022/05/23 07:39:36;;;;;;;27.17;4.57;;;33.90;3.40;;;;;;5028166;28;20852;-64
2022/05/23 07:42:03;;;;;;;25.93;3.73;;;36.10;1.00;;;;;;5022802;28;20470;-64
2022/05/23 07:44:30;;;;;;;25.13;3.93;;;37.80;1.00;;;;;;5025103;28;20477;-63
2022/05/23 07:46:57;;;;;;;25.47;3.73;;;38.90;1.00;;;;;;5027675;28;20479;-64
2022/05/23 07:49:26;;;;;;;23.90;3.33;;;40.10;1.00;;;;;;5028534;28;20459;-63
2022/05/23 07:51:53;;;;;;;24.83;4.03;;;41.30;1.00;;;;;;5023875;28;20923;-65
2022/05/23 08:02:34;;;;;;;25.03;3.60;;;41.50;1.00;;;;;;5022094;28;20466;-63
2022/05/23 08:05:03;;;;;;;23.93;3.83;;;40.20;1.00;;;;;;5021231;28;20544;-62
2022/05/23 08:07:30;;;;;;;23.53;3.70;;;38.50;1.00;;;;;;5025715;28;21047;-61
2022/05/23 08:10:00;;;;;;;24.10;3.93;;;37.10;1.00;;;;;;5024344;28;20540;-64
2022/05/23 08:12:27;;;;;;;25.13;4.00;;;35.70;1.00;;;;;;5024734;28;20463;-63
2022/05/23 08:14:54;;;;;;;29.90;4.13;;;34.10;1.00;;;;;;5023866;28;20480;-61
2022/05/23 08:17:22;;;;;;;26.03;4.50;;;32.70;1.00;;;;;;5019333;28;20459;-64
2022/05/23 08:19:49;;;;;;;24.97;4.03;;;31.30;1.30;;;;;;5027816;28;20455;-65
2022/05/23 08:22:19;;;;;;;28.00;5.20;;;30.30;2.90;;;;;;5027475;28;20553;-65
2022/05/23 08:24:46;;;;;;;26.70;4.77;;;29.40;4.40;;;;;;5027194;28;20463;-65
2022/05/23 08:27:13;;;;;;;26.50;4.50;;;28.70;5.60;;;;;;5024108;28;20486;-65
2022/05/23 08:29:40;;;;;;;30.10;4.47;;;27.80;7.20;;;;;;5027766;28;20463;-63
2022/05/23 08:32:10;;;;;;;26.93;4.73;;;27.10;8.60;;;;;;5027190;28;20478;-64
2022/05/23 08:34:37;;;;;;;26.43;4.20;;;26.70;9.10;;;;;;5021771;28;21235;-64
2022/05/23 08:37:04;;;;;;;28.10;4.80;;;26.70;9.60;;;;;;5033061;28;20454;-68
2022/05/23 08:39:32;;;;;;;26.47;4.30;;;27.40;8.80;;;;;;5026951;28;20462;-63
2022/05/23 08:42:06;;;;;;;28.87;5.40;;;28.20;7.20;;;;;;5021558;28;20459;-64
2022/05/23 08:44:44;;;;;;;28.03;4.87;;;29.10;6.30;;;;;;5026781;28;20521;-64
2022/05/23 08:47:17;;;;;;;26.10;4.10;;;30.10;5.20;;;;;;5024583;28;20529;-63
2022/05/23 08:49:46;;;;;;;27.33;4.57;;;30.60;4.30;;;;;;5025710;28;20459;-63
2022/05/23 08:52:19;;;;;;;26.03;4.53;;;31.40;4.00;;;;;;5027028;28;20466;-65
2022/05/23 08:54:55;;;;;;;25.87;4.30;;;33.20;1.90;;;;;;5026966;28;20843;-63
2022/05/23 08:57:28;;;;;;;26.97;4.97;;;34.60;1.00;;;;;;5024360;28;21002;-63
2022/05/23 09:00:00;;;;;;;25.47;4.57;;;35.50;1.00;;;;;;5023834;28;20468;-64
2022/05/23 09:02:37;;;;;;;26.30;4.67;;;36.10;1.00;;;;;;5018322;28;20919;-64
2022/05/23 09:05:06;;;;;;;25.97;4.83;;;37.50;1.00;;;;;;5026478;28;20489;-63
2022/05/23 09:07:39;;;;;;;25.60;5.03;;;37.20;1.00;;;;;;5024252;28;20489;-65
2022/05/23 09:10:14;;;;;;;29.80;4.60;;;36.90;1.00;;;;;;5020773;28;20466;-65
2022/05/23 09:12:41;;;;;;;25.40;4.23;;;36.60;1.00;;;;;;5030604;28;20458;-63
2022/05/23 09:15:08;;;;;;;25.33;4.60;;;36.20;1.00;;;;;;5023635;28;20852;-63
2022/05/23 09:17:40;;;;;;;24.93;4.93;;;36.20;1.00;;;;;;5029682;28;20471;-64
2022/05/23 09:20:11;;;;;;;26.17;4.53;;;36.90;1.00;;;;;;5030557;28;20634;-65
2022/05/23 09:22:47;;;;;;;27.63;4.77;;;38.20;1.00;;;;;;5030264;28;20469;-65
2022/05/23 09:25:18;;;;;;;25.03;4.53;;;39.60;1.00;;;;;;5030539;28;20875;-63
2022/05/23 09:27:49;;;;;;;24.20;4.07;;;40.80;1.00;;;;;;5029252;28;20483;-64
2022/05/23 09:30:19;;;;;;;24.00;4.70;;;41.90;1.00;;;;;;5026571;28;20462;-64
2022/05/23 09:32:51;;;;;;;23.60;3.93;;;42.80;1.00;;;;;;5030031;28;20462;-67
2022/05/23 09:35:20;;;;;;;24.20;4.10;;;43.30;1.00;;;;;;5025840;28;20479;-64
2022/05/23 09:37:49;;;;;;;24.60;4.47;;;43.20;1.00;;;;;;5030221;28;20455;-64
2022/05/23 09:40:27;;;;;;;24.67;4.33;;;42.30;1.00;;;;;;5028765;28;20466;-66
2022/05/23 09:49:20;;;;;;;25.10;4.10;;;38.30;1.00;;;;;;5026220;28;20442;-64
2022/05/23 09:51:51;;;;;;;24.07;4.10;;;37.30;1.00;;;;;;5019610;28;20508;-64
2022/05/23 09:54:22;;;;;;;26.67;4.43;;;36.40;1.00;;;;;;5025063;28;20459;-64
2022/05/23 09:56:51;;;;;;;26.67;4.60;;;35.40;1.00;;;;;;5027356;28;21039;-65
2022/05/23 09:59:27;;;;;;;25.40;4.90;;;34.30;1.00;;;;;;5025856;28;20490;-63
2022/05/23 10:01:54;;;;;;;28.23;5.47;;;33.60;1.00;;;;;;5023118;28;20479;-63
2022/05/23 10:04:25;;;;;;;25.23;5.10;;;32.90;1.00;;;;;;5029707;28;20993;-64
2022/05/23 10:06:52;;;;;;;28.60;4.70;;;32.20;1.30;;;;;;5014257;28;20486;-63
2022/05/23 10:09:28;;;;;;;27.33;5.47;;;31.70;2.30;;;;;;5025739;28;20464;-63
2022/05/23 10:12:00;;;;;;;26.20;5.07;;;31.40;2.90;;;;;;5018209;28;20844;-64
2022/05/23 10:14:42;;;;;;;27.53;5.67;;;31.20;3.80;;;;;;5026412;28;20471;-63
2022/05/23 10:17:09;;;;;;;27.53;4.90;;;31.30;3.70;;;;;;5027103;28;20455;-63
2022/05/23 10:19:38;;;;;;;26.50;5.20;;;31.40;3.70;;;;;;5024814;28;20953;-65
2022/05/23 10:22:09;;;;;;;27.53;4.60;;;31.20;3.60;;;;;;5022375;28;20471;-63
2022/05/23 10:24:39;;;;;;;27.93;4.73;;;31.10;4.10;;;;;;5029771;28;20474;-63
2022/05/23 10:27:15;;;;;;;26.73;4.87;;;30.90;3.80;;;;;;5026510;28;20485;-64
2022/05/23 10:29:48;;;;;;;27.00;5.73;;;30.70;4.00;;;;;;5025693;28;20465;-63
2022/05/23 10:32:21;;;;;;;27.70;5.50;;;30.70;4.10;;;;;;5022977;28;20475;-63
2022/05/23 10:34:50;;;;;;;30.20;5.47;;;30.60;4.10;;;;;;5029067;28;20489;-63
2022/05/23 10:37:21;;;;;;;27.07;5.67;;;30.50;4.50;;;;;;5029716;28;20542;-64
2022/05/23 10:42:51;;;;;;;26.30;5.00;;;30.40;5.10;;;;;;4966673;28;20465;-64
2022/05/23 10:45:26;;;;;;;27.30;5.07;;;30.10;5.80;;;;;;5015621;28;20565;-63
2022/05/23 10:48:10;;;;;;;26.50;4.80;;;29.90;5.90;;;;;;5026349;28;20474;-64
2022/05/23 10:50:47;;;;;;;26.53;5.57;;;29.90;6.20;;;;;;5024317;28;20490;-62
2022/05/23 10:53:25;;;;;;;30.53;5.77;;;29.90;6.20;;;;;;5028010;28;20466;-63
2022/05/23 10:56:07;;;;;;;28.33;5.30;;;30.00;7.00;;;;;;5027641;28;20483;-63
2022/05/23 10:58:42;;;;;;;28.40;5.57;;;30.40;7.00;;;;;;5021153;28;20460;-63
2022/05/23 11:01:28;;;;;;;26.40;5.13;;;30.70;6.40;;;;;;5028816;28;20477;-64
2022/05/23 11:04:04;;;;;;;25.43;4.90;;;31.00;5.60;;;;;;5020582;28;20466;-63
2022/05/23 11:06:41;;;;;;;25.97;4.63;;;31.20;5.80;;;;;;5028265;28;20486;-65
2022/05/23 11:09:21;;;;;;;26.50;4.97;;;31.40;5.90;;;;;;5029223;28;20478;-64
2022/05/23 11:11:58;;;;;;;26.93;5.10;;;31.60;5.50;;;;;;5027521;28;20458;-64
2022/05/23 11:14:37;;;;;;;26.17;5.23;;;31.70;4.70;;;;;;5032677;28;20458;-63
2022/05/23 11:17:17;;;;;;;27.70;5.50;;;31.80;4.70;;;;;;5025848;28;20467;-66
2022/05/23 11:19:59;;;;;;;25.73;5.27;;;31.90;5.00;;;;;;5035757;28;20469;-65
2022/05/23 11:22:34;;;;;;;28.43;5.80;;;31.90;4.70;;;;;;5030383;28;20855;-66
2022/05/23 11:25:13;;;;;;;30.40;7.10;;;31.90;5.30;;;;;;5027613;28;20481;-64
2022/05/23 11:36:04;;;;;;;26.70;6.60;;;31.00;7.60;;;;;;5025515;28;20863;-62
2022/05/23 11:38:31;;;;;;;26.47;6.83;;;30.60;8.10;;;;;;5028610;28;20462;-63
2022/05/23 11:41:09;;;;;;;30.80;7.87;;;30.30;9.30;;;;;;5017500;28;20459;-63
2022/05/23 11:43:36;;;;;;;31.83;7.53;;;29.90;9.90;;;;;;5022815;28;20467;-66
2022/05/23 11:46:07;;;;;;;27.33;8.00;;;29.50;10.30;;;;;;5026841;28;20505;-63
2022/05/23 11:48:55;;;;;;;26.90;7.40;;;29.00;11.90;;;;;;5021730;28;20480;-62
2022/05/23 11:51:41;;;;;;;27.73;8.57;;;28.60;13.00;;;;;;5025596;28;20455;-64
2022/05/23 11:54:35;;;;;;;27.43;9.80;;;28.50;14.70;;;;;;5021707;28;21136;-63
2022/05/23 11:57:19;;;;;;;27.07;7.80;;;28.50;15.80;;;;;;5027669;28;20818;-64
2022/05/23 12:00:25;;;;;;;28.43;8.17;;;28.60;16.10;;;;;;5028749;28;20455;-64
2022/05/23 12:03:11;;;;;;;26.43;7.40;;;28.60;15.70;;;;;;4939762;28;20878;-65
2022/05/23 12:05:38;;;;;;;26.60;7.83;;;28.60;15.70;;;;;;5021964;28;20515;-63
2022/05/23 12:08:26;;;;;;;25.20;6.27;;;28.70;15.10;;;;;;5027870;28;20486;-62
2022/05/23 12:10:59;;;;;;;27.30;7.50;;;28.70;15.30;;;;;;5024679;28;20455;-63
2022/05/23 12:13:58;;;;;;;27.37;7.17;;;28.70;15.20;;;;;;5021694;28;20459;-63
2022/05/23 12:16:42;;;;;;;29.40;6.30;;;28.60;15.00;;;;;;5019600;28;20490;-62
2022/05/23 12:19:30;;;;;;;25.60;6.10;;;28.50;14.20;;;;;;5028335;28;20533;-62
2022/05/23 12:22:24;;;;;;;27.60;6.23;;;28.30;15.30;;;;;;5015373;28;20972;-62
2022/05/23 12:25:18;;;;;;;28.80;6.90;;;28.20;15.30;;;;;;5012173;28;20486;-63
2022/05/23 12:28:15;;;;;;;28.10;8.30;;;28.10;15.20;;;;;;5026567;28;20482;-62
2022/05/23 12:30:44;;;;;;;28.57;7.53;;;28.00;15.50;;;;;;5027178;28;21029;-62
2022/05/23 12:33:22;;;;;;;30.33;6.57;;;27.90;15.20;;;;;;5026704;28;20455;-62
2022/05/23 12:35:55;;;;;;;28.00;7.03;;;27.90;15.70;;;;;;5027507;28;20512;-62
2022/05/23 12:38:51;;;;;;;31.53;5.90;;;27.70;15.80;;;;;;5024623;28;20470;-64
2022/05/23 12:41:45;;;;;;;26.23;4.80;;;27.70;15.90;;;;;;5027686;28;20490;-63
2022/05/23 12:44:43;;;;;;;26.40;3.80;;;27.60;15.70;;;;;;5023456;28;21003;-64
2022/05/23 12:47:24;;;;;;;28.90;3.90;;;27.40;13.20;;;;;;5027320;28;20459;-62
2022/05/23 12:50:01;;;;;;;26.40;3.63;;;27.20;13.40;;;;;;5029824;28;20455;-63
2022/05/23 12:52:42;;;;;;;26.13;3.70;;;27.00;14.00;;;;;;5024443;28;20455;-62
2022/05/23 12:55:24;;;;;;;25.60;3.80;;;26.90;13.70;;;;;;5027502;28;20482;-64
2022/05/23 12:58:16;;;;;;;26.80;3.80;;;26.80;14.10;;;;;;5029018;28;20463;-62
2022/05/23 13:00:46;;;;;;;27.00;4.73;;;26.70;14.40;;;;;;5028755;28;20466;-62
2022/05/23 13:03:25;;;;;;;27.83;4.83;;;26.70;14.40;;;;;;5031002;28;20493;-62
2022/05/23 13:05:57;;;;;;;26.90;4.47;;;26.70;14.60;;;;;;5030790;28;21020;-61
2022/05/23 13:08:30;;;;;;;27.17;4.60;;;26.60;14.20;;;;;;5029567;28;20478;-61
2022/05/23 13:11:00;;;;;;;26.17;3.57;;;26.50;13.60;;;;;;5028811;28;20497;-61
2022/05/23 13:13:34;;;;;;;29.47;4.30;;;26.40;13.60;;;;;;5029176;28;20463;-64
2022/05/23 13:16:20;;;;;;;26.67;3.93;;;26.40;13.30;;;;;;5033765;28;20475;-62
2022/05/23 13:27:00;;;;;;;25.90;3.17;;;26.30;12.70;;;;;;5029855;28;20562;-62
2022/05/23 13:29:27;;;;;;;26.53;3.30;;;26.30;12.40;;;;;;5028384;28;20855;-63
2022/05/23 13:31:59;;;;;;;30.37;4.53;;;26.30;12.30;;;;;;5027991;28;20479;-62
2022/05/23 13:34:31;;;;;;;28.67;3.60;;;26.20;12.50;;;;;;5030338;28;20462;-61
2022/05/23 13:36:58;;;;;;;28.13;3.47;;;26.20;12.60;;;;;;5026158;28;20455;-62
2022/05/23 13:39:26;;;;;;;26.93;3.90;;;26.10;12.90;;;;;;5029165;28;20823;-62
2022/05/23 13:41:54;;;;;;;25.20;3.30;;;25.90;12.90;;;;;;5025486;28;20466;-62
2022/05/23 13:44:22;;;;;;;28.53;4.87;;;25.80;13.20;;;;;;5025412;28;20460;-63
2022/05/23 13:46:51;;;;;;;29.80;4.33;;;25.70;13.40;;;;;;5029944;28;20482;-61
2022/05/23 13:49:23;;;;;;;28.23;4.33;;;25.50;13.80;;;;;;5022797;28;20482;-63
2022/05/23 13:51:53;;;;;;;27.30;4.13;;;25.30;14.40;;;;;;5029507;28;20459;-63
2022/05/23 13:54:25;;;;;;;30.07;4.63;;;25.10;15.10;;;;;;5026264;28;20502;-63
2022/05/23 13:56:56;;;;;;;28.50;3.70;;;25.00;15.40;;;;;;5019071;28;20474;-61
2022/05/23 13:59:26;;;;;;;27.13;4.40;;;24.80;15.40;;;;;;5027094;28;20881;-63
2022/05/23 14:01:56;;;;;;;25.93;4.10;;;24.70;15.90;;;;;;5028208;28;20471;-62
2022/05/23 14:04:28;;;;;;;25.03;3.60;;;24.60;16.30;;;;;;5029404;28;20529;-62
2022/05/23 14:06:59;;;;;;;27.13;3.70;;;24.50;16.80;;;;;;5027808;28;20462;-63